createdAt,value
2022-11-29T00:01:45.600Z,99.51
2022-11-29T00:04:11.910Z,99.66
2022-11-29T00:06:39.929Z,99.50
2022-11-29T00:09:09.478Z,100.00
2022-11-29T00:11:38.054Z,99.49
2022-11-29T00:14:07.161Z,100.00
2022-11-29T00:16:34.030Z,99.75
2022-11-29T00:19:00.492Z,100.00
2022-11-29T00:21:27.283Z,100.00
2022-11-29T00:23:53.586Z,99.11
2022-11-29T00:26:20.177Z,100.00
2022-11-29T00:28:46.749Z,99.77
2022-11-29T00:31:22.981Z,99.65
2022-11-29T00:33:49.890Z,99.38
2022-11-29T00:36:16.961Z,99.35
2022-11-29T00:38:43.845Z,100.00
2022-11-29T00:41:10.885Z,99.75
2022-11-29T00:43:37.550Z,99.73
2022-11-29T00:46:04.504Z,99.78
2022-11-29T00:48:31.430Z,99.77
2022-11-29T00:51:00.605Z,99.86
2022-11-29T00:53:27.055Z,100.00
2022-11-29T00:55:53.991Z,99.57
2022-11-29T00:58:20.983Z,99.85
2022-11-29T01:00:47.739Z,99.98
2022-11-29T01:03:15.436Z,99.29
2022-11-29T01:05:42.395Z,98.89
2022-11-29T01:08:09.882Z,99.21
2022-11-29T01:10:36.178Z,99.40
2022-11-29T01:13:02.595Z,99.24
2022-11-29T01:15:29.195Z,99.69
2022-11-29T01:17:55.518Z,99.10
2022-11-29T01:20:21.854Z,99.72
2022-11-29T01:22:48.300Z,99.93
2022-11-29T01:25:15.298Z,99.94
2022-11-29T01:27:41.858Z,100.00
2022-11-29T01:30:09.934Z,99.08
2022-11-29T01:32:36.822Z,99.21
2022-11-29T01:35:04.019Z,99.56
2022-11-29T01:37:30.422Z,99.08
2022-11-29T01:39:56.883Z,99.55
2022-11-29T01:42:23.196Z,98.72
2022-11-29T01:44:49.475Z,99.28
2022-11-29T01:47:18.496Z,98.61
2022-11-29T01:49:48.684Z,98.71
2022-11-29T01:52:22.728Z,99.11
2022-11-29T01:54:52.338Z,98.78
2022-11-29T01:57:20.261Z,99.44
2022-11-29T01:59:49.598Z,99.15
2022-11-29T02:02:21.988Z,98.52
2022-11-29T02:04:49.471Z,99.01
2022-11-29T02:07:16.281Z,98.71
2022-11-29T02:09:42.764Z,98.43
2022-11-29T02:12:38.501Z,99.14
2022-11-29T02:15:33.244Z,98.42
2022-11-29T02:18:20.852Z,98.62
2022-11-29T02:21:27.392Z,99.18
2022-11-29T02:24:14.400Z,99.44
2022-11-29T02:26:49.618Z,99.34
2022-11-29T02:29:15.867Z,98.70
2022-11-29T02:32:00.167Z,98.90
2022-11-29T02:34:37.218Z,98.90
2022-11-29T02:37:16.063Z,98.79
2022-11-29T02:39:48.113Z,98.33
2022-11-29T02:42:38.899Z,99.24
2022-11-29T02:45:23.079Z,98.84
2022-11-29T02:48:07.817Z,98.70
2022-11-29T02:50:55.514Z,99.02
2022-11-29T02:53:43.269Z,98.72
2022-11-29T02:56:34.609Z,98.81
2022-11-29T02:59:03.916Z,98.30
2022-11-29T03:01:40.142Z,98.38
2022-11-29T03:04:12.642Z,99.18
2022-11-29T03:06:53.165Z,98.73
2022-11-29T03:09:36.834Z,98.91
2022-11-29T03:12:18.173Z,98.44
2022-11-29T03:14:57.374Z,98.74
2022-11-29T03:17:52.759Z,98.23
2022-11-29T03:20:37.411Z,98.37
2022-11-29T03:23:09.779Z,98.77
2022-11-29T03:25:40.241Z,98.79
2022-11-29T03:28:17.267Z,98.66
2022-11-29T03:30:51.140Z,98.33
2022-11-29T03:33:38.798Z,98.58
2022-11-29T03:36:27.345Z,98.44
2022-11-29T03:38:58.355Z,97.93
2022-11-29T03:41:40.162Z,98.28
2022-11-29T03:44:27.737Z,98.45
2022-11-29T03:47:06.432Z,99.00
2022-11-29T03:49:37.688Z,98.54
2022-11-29T03:52:15.456Z,98.70
2022-11-29T03:55:14.741Z,98.81
2022-11-29T03:57:59.131Z,98.21
2022-11-29T04:00:32.963Z,99.16
2022-11-29T04:03:29.109Z,97.82
2022-11-29T04:06:21.431Z,97.96
2022-11-29T04:09:11.519Z,99.22
2022-11-29T04:11:49.829Z,99.37
2022-11-29T04:14:31.410Z,99.11
2022-11-29T04:17:57.477Z,99.58
2022-11-29T04:21:01.091Z,99.09
2022-11-29T04:23:59.234Z,99.32
2022-11-29T04:27:10.831Z,98.28
2022-11-29T04:30:01.576Z,98.90
2022-11-29T04:32:58.740Z,99.06
2022-11-29T04:36:06.438Z,99.11
2022-11-29T04:38:46.781Z,98.67
2022-11-29T04:41:52.251Z,98.89
2022-11-29T04:44:58.091Z,98.78
2022-11-29T04:48:01.701Z,98.74
2022-11-29T04:50:59.639Z,98.80
2022-11-29T04:53:41.131Z,98.96
2022-11-29T04:56:23.486Z,99.06
2022-11-29T04:59:04.601Z,98.60
2022-11-29T05:01:52.871Z,98.79
2022-11-29T05:04:40.136Z,98.73
2022-11-29T05:07:38.388Z,98.29
2022-11-29T05:10:16.609Z,99.00
2022-11-29T05:12:53.029Z,98.72
2022-11-29T05:15:25.393Z,98.71
2022-11-29T05:18:21.852Z,98.88
2022-11-29T05:21:12.103Z,98.94
2022-11-29T05:24:06.587Z,98.35
2022-11-29T05:26:41.407Z,99.04
2022-11-29T05:29:33.923Z,98.79
2022-11-29T05:32:22.619Z,98.82
2022-11-29T05:35:10.713Z,99.61
2022-11-29T05:37:45.774Z,99.55
2022-11-29T05:40:56.679Z,99.31
2022-11-29T05:43:54.067Z,99.27
2022-11-29T05:46:31.395Z,98.75
2022-11-29T05:49:06.879Z,99.53
2022-11-29T05:51:48.602Z,99.49
2022-11-29T05:54:14.827Z,98.88
2022-11-29T05:57:17.157Z,99.45
2022-11-29T05:59:44.980Z,98.95
2022-11-29T06:02:26.559Z,99.20
2022-11-29T06:05:20.228Z,99.30
2022-11-29T06:08:05.081Z,98.67
2022-11-29T06:10:36.400Z,99.26
2022-11-29T06:13:21.478Z,99.08
2022-11-29T06:16:12.844Z,98.86
2022-11-29T06:19:12.991Z,99.50
2022-11-29T06:21:53.826Z,98.96
2022-11-29T06:24:55.396Z,99.52
2022-11-29T06:27:32.692Z,100.00
2022-11-29T06:30:13.166Z,99.42
2022-11-29T06:33:14.137Z,99.52
2022-11-29T06:35:50.846Z,99.07
2022-11-29T06:38:29.680Z,98.65
2022-11-29T06:41:02.047Z,98.93
2022-11-29T06:43:29.675Z,98.51
2022-11-29T06:46:03.138Z,98.76
2022-11-29T06:48:38.158Z,99.26
2022-11-29T06:51:23.676Z,98.64
2022-11-29T06:54:11.947Z,99.44
2022-11-29T06:56:52.072Z,98.92
2022-11-29T06:59:44.891Z,99.52
2022-11-29T07:02:51.461Z,99.44
2022-11-29T07:05:28.200Z,99.14
2022-11-29T07:07:57.845Z,99.29
2022-11-29T07:10:30.787Z,99.94
2022-11-29T07:12:57.778Z,99.12
2022-11-29T07:15:24.534Z,100.00
2022-11-29T07:18:02.974Z,99.19
2022-11-29T07:20:50.963Z,98.82
2022-11-29T07:23:48.691Z,99.50
2022-11-29T07:26:38.295Z,99.09
2022-11-29T07:29:43.747Z,98.77
2022-11-29T07:32:26.027Z,99.15
2022-11-29T07:35:08.517Z,97.80
2022-11-29T07:38:18.391Z,98.08
2022-11-29T07:40:44.617Z,98.50
2022-11-29T07:43:36.987Z,98.73
2022-11-29T07:46:03.345Z,98.74
2022-11-29T07:48:29.606Z,98.94
2022-11-29T07:50:56.786Z,99.46
2022-11-29T07:53:24.126Z,98.94
2022-11-29T07:55:51.072Z,98.95
2022-11-29T07:58:17.909Z,98.63
2022-11-29T08:00:44.900Z,98.47
2022-11-29T08:03:11.524Z,98.65
2022-11-29T08:05:38.494Z,98.79
2022-11-29T08:08:05.862Z,99.18
2022-11-29T08:10:32.402Z,98.73
2022-11-29T08:12:58.862Z,98.39
2022-11-29T08:15:25.585Z,98.72
2022-11-29T08:17:52.956Z,97.99
2022-11-29T08:20:19.807Z,98.05
2022-11-29T08:22:57.112Z,98.49
2022-11-29T08:25:23.802Z,98.04
2022-11-29T08:27:50.286Z,97.52
2022-11-29T08:30:16.962Z,97.88
2022-11-29T08:32:48.467Z,98.02
2022-11-29T08:35:22.006Z,98.07
2022-11-29T08:37:48.744Z,98.62
2022-11-29T08:48:22.887Z,97.15
2022-11-29T08:50:50.351Z,97.31
2022-11-29T08:53:16.674Z,97.36
2022-11-29T08:55:43.327Z,97.11
2022-11-29T08:58:12.770Z,97.59
2022-11-29T09:00:40.296Z,96.59
2022-11-29T09:03:07.562Z,96.67
2022-11-29T09:05:33.886Z,96.96
2022-11-29T09:08:00.279Z,96.88
2022-11-29T09:10:26.701Z,97.17
2022-11-29T09:12:53.030Z,96.94
2022-11-29T09:15:19.349Z,96.89
2022-11-29T09:17:45.627Z,96.36
2022-11-29T09:20:12.339Z,96.80
2022-11-29T09:22:38.638Z,95.77
2022-11-29T09:25:05.691Z,96.23
2022-11-29T09:27:32.216Z,95.47
2022-11-29T09:29:58.552Z,94.88
2022-11-29T09:32:24.908Z,94.73
2022-11-29T09:34:52.295Z,95.28
2022-11-29T09:37:18.842Z,95.57
2022-11-29T09:39:45.167Z,95.42
2022-11-29T09:42:55.100Z,94.67
2022-11-29T09:45:29.751Z,94.35
2022-11-29T09:48:14.938Z,94.91
2022-11-29T09:50:48.116Z,94.63
2022-11-29T09:54:05.304Z,93.77
2022-11-29T09:56:40.772Z,93.16
2022-11-29T09:59:17.143Z,92.75
2022-11-29T10:01:53.106Z,93.14
2022-11-29T10:04:25.336Z,94.19
2022-11-29T10:07:02.557Z,94.02
2022-11-29T10:09:48.906Z,94.36
2022-11-29T10:12:37.781Z,94.52
2022-11-29T10:15:15.923Z,94.94
2022-11-29T10:18:01.070Z,93.97
2022-11-29T10:20:36.430Z,94.40
2022-11-29T10:23:20.347Z,93.70
2022-11-29T10:25:52.855Z,94.37
2022-11-29T10:28:21.999Z,94.01
2022-11-29T10:30:50.219Z,94.30
2022-11-29T10:33:23.569Z,94.93
2022-11-29T10:35:54.135Z,93.82
2022-11-29T10:38:30.893Z,93.92
2022-11-29T10:41:03.839Z,94.06
2022-11-29T10:43:30.252Z,92.94
2022-11-29T10:45:57.855Z,93.54
2022-11-29T10:48:30.435Z,94.09
2022-11-29T10:50:56.843Z,93.37
2022-11-29T10:53:31.014Z,94.81
2022-11-29T10:56:23.811Z,94.55
2022-11-29T10:59:01.327Z,94.12
2022-11-29T11:01:27.851Z,94.05
2022-11-29T11:03:56.980Z,93.70
2022-11-29T11:06:27.678Z,94.40
2022-11-29T11:09:14.371Z,92.31
2022-11-29T11:11:40.868Z,92.62
2022-11-29T11:14:27.976Z,91.71
2022-11-29T11:16:54.382Z,93.03
2022-11-29T11:19:26.957Z,92.47
2022-11-29T11:21:57.931Z,93.62
2022-11-29T11:24:28.444Z,93.02
2022-11-29T11:26:55.618Z,88.95
2022-11-29T11:29:25.587Z,86.70
2022-11-29T11:31:57.698Z,85.09
2022-11-29T11:34:38.173Z,84.62
2022-11-29T11:37:20.059Z,86.15
2022-11-29T11:39:50.169Z,86.87
2022-11-29T11:42:23.995Z,86.76
2022-11-29T11:44:51.180Z,87.42
2022-11-29T11:47:20.407Z,88.40
2022-11-29T11:49:55.527Z,86.86
2022-11-29T11:52:38.302Z,86.06
2022-11-29T11:55:21.883Z,86.07
2022-11-29T11:58:10.336Z,86.81
2022-11-29T12:01:06.216Z,87.78
2022-11-29T12:04:14.525Z,87.88
2022-11-29T12:06:52.001Z,88.48
2022-11-29T12:09:33.987Z,89.17
2022-11-29T12:12:21.014Z,90.26
2022-11-29T12:15:02.128Z,89.00
2022-11-29T12:17:35.340Z,89.30
2022-11-29T12:20:07.408Z,89.33
2022-11-29T12:23:03.276Z,89.37
2022-11-29T12:25:34.460Z,90.79
2022-11-29T12:28:00.926Z,91.13
2022-11-29T12:30:27.576Z,91.58
2022-11-29T12:33:19.886Z,91.23
2022-11-29T12:36:07.361Z,91.26
2022-11-29T12:38:43.795Z,90.26
2022-11-29T12:41:29.657Z,90.38
2022-11-29T12:44:08.200Z,90.37
2022-11-29T12:46:35.314Z,90.18
2022-11-29T12:49:33.510Z,90.46
2022-11-29T12:51:59.776Z,90.06
2022-11-29T12:54:38.276Z,90.90
2022-11-29T12:57:19.738Z,89.88
2022-11-29T13:00:07.607Z,90.43
2022-11-29T13:03:04.801Z,91.45
2022-11-29T13:05:46.136Z,91.02
2022-11-29T13:08:31.029Z,91.08
2022-11-29T13:11:28.508Z,90.66
2022-11-29T13:14:42.000Z,90.12
2022-11-29T13:17:32.836Z,90.89
2022-11-29T13:20:19.678Z,92.08
2022-11-29T13:22:54.993Z,91.78
2022-11-29T13:25:30.084Z,91.75
2022-11-29T13:28:01.689Z,92.51
2022-11-29T13:30:28.260Z,92.36
2022-11-29T13:32:59.116Z,92.66
2022-11-29T13:35:49.972Z,91.91
2022-11-29T13:38:29.890Z,91.13
2022-11-29T13:41:38.424Z,91.94
2022-11-29T13:44:46.130Z,91.19
2022-11-29T13:47:17.884Z,91.27
2022-11-29T13:50:26.484Z,92.26
2022-11-29T13:53:03.768Z,91.74
2022-11-29T13:55:30.390Z,92.61
2022-11-29T13:58:16.728Z,92.48
2022-11-29T14:00:43.456Z,92.22
2022-11-29T14:03:27.717Z,92.33
2022-11-29T14:06:10.418Z,93.03
2022-11-29T14:09:16.762Z,92.35
2022-11-29T14:11:37.744Z,92.69
2022-11-29T14:14:16.917Z,92.90
2022-11-29T14:17:01.991Z,93.52
2022-11-29T14:19:36.837Z,92.40
2022-11-29T14:22:03.282Z,92.67
2022-11-29T14:24:32.605Z,92.35
2022-11-29T14:27:08.087Z,93.04
2022-11-29T14:29:49.739Z,92.15
2022-11-29T14:32:46.196Z,92.89
2022-11-29T14:35:12.843Z,93.01
2022-11-29T14:38:04.202Z,93.46
2022-11-29T14:40:45.963Z,93.52
2022-11-29T14:43:30.631Z,93.47
2022-11-29T14:46:15.461Z,92.82
2022-11-29T14:49:04.323Z,93.52
2022-11-29T14:51:33.085Z,93.83
2022-11-29T14:54:19.106Z,94.13
2022-11-29T14:56:46.668Z,94.68
2022-11-29T14:59:37.845Z,94.79
2022-11-29T15:02:41.782Z,94.40
2022-11-29T15:05:21.787Z,94.96
2022-11-29T15:08:08.539Z,95.56
2022-11-29T15:10:40.867Z,95.31
2022-11-29T15:13:11.986Z,95.54
2022-11-29T15:16:10.462Z,95.66
2022-11-29T15:19:11.164Z,95.33
2022-11-29T15:22:05.548Z,95.89
2022-11-29T15:24:31.788Z,96.43
2022-11-29T15:26:59.990Z,96.26
2022-11-29T15:29:27.686Z,96.64
2022-11-29T15:31:57.083Z,97.00
2022-11-29T15:34:47.337Z,97.04
2022-11-29T15:37:38.614Z,96.78
2022-11-29T15:40:18.286Z,97.39
2022-11-29T15:42:50.083Z,97.06
2022-11-29T15:45:34.134Z,97.26
2022-11-29T15:48:39.307Z,97.66
2022-11-29T15:51:21.387Z,97.08
2022-11-29T15:54:00.433Z,96.80
2022-11-29T15:57:03.500Z,96.99
2022-11-29T15:59:46.580Z,97.00
2022-11-29T16:02:18.485Z,96.87
2022-11-29T16:04:47.248Z,96.91
2022-11-29T16:07:14.836Z,97.48
2022-11-29T16:09:45.227Z,96.66
2022-11-29T16:12:14.452Z,97.57
2022-11-29T16:14:55.195Z,97.58
2022-11-29T16:17:24.648Z,98.01
2022-11-29T16:19:51.052Z,97.10
2022-11-29T16:22:23.596Z,96.25
2022-11-29T16:25:05.706Z,96.94
2022-11-29T16:27:36.244Z,98.26
2022-11-29T16:30:04.471Z,97.75
2022-11-29T16:32:38.065Z,98.36
2022-11-29T16:35:22.653Z,98.23
2022-11-29T16:37:49.071Z,98.39
2022-11-29T16:40:28.388Z,97.96
2022-11-29T16:43:03.599Z,98.79
2022-11-29T16:45:38.617Z,98.49
2022-11-29T16:48:30.028Z,98.11
2022-11-29T16:51:26.732Z,98.06
2022-11-29T16:53:54.127Z,98.88
2022-11-29T16:56:23.348Z,98.21
2022-11-29T16:59:20.743Z,98.37
2022-11-29T17:01:39.999Z,98.63
2022-11-29T17:04:08.535Z,98.03
2022-11-29T17:06:35.019Z,98.74
2022-11-29T17:09:01.623Z,98.38
2022-11-29T17:11:28.004Z,98.41
2022-11-29T17:13:54.323Z,97.83
2022-11-29T17:16:22.969Z,97.92
2022-11-29T17:18:49.515Z,97.88
2022-11-29T17:21:25.902Z,97.85
2022-11-29T17:23:53.024Z,98.17
2022-11-29T17:26:20.910Z,97.34
2022-11-29T17:28:48.782Z,97.94
2022-11-29T17:31:17.813Z,98.63
2022-11-29T17:33:44.498Z,98.07
2022-11-29T17:36:13.193Z,98.57
2022-11-29T17:38:39.471Z,97.92
2022-11-29T17:41:10.923Z,97.92
2022-11-29T17:43:37.753Z,97.59
2022-11-29T17:46:08.189Z,98.05
2022-11-29T17:48:34.712Z,97.53
2022-11-29T17:51:01.498Z,98.13
2022-11-29T17:53:27.900Z,98.08
2022-11-29T17:55:54.175Z,97.80
2022-11-29T17:58:20.513Z,97.71
2022-11-29T18:00:46.837Z,98.34
2022-11-29T18:03:13.166Z,97.85
2022-11-29T18:05:39.724Z,97.88
2022-11-29T18:08:07.010Z,98.04
2022-11-29T18:10:33.280Z,98.27
2022-11-29T18:12:59.609Z,98.00
2022-11-29T18:15:25.954Z,98.08
2022-11-29T18:17:52.245Z,98.10
2022-11-29T18:20:18.579Z,97.47
2022-11-29T18:22:44.902Z,98.28
2022-11-29T18:25:37.549Z,98.26
2022-11-29T18:27:57.454Z,98.42
2022-11-29T18:30:23.730Z,98.40
2022-11-29T18:32:49.994Z,97.93
2022-11-29T18:35:16.479Z,98.18
2022-11-29T18:38:13.657Z,98.51
2022-11-29T18:40:29.378Z,97.55
2022-11-29T18:42:55.683Z,98.61
2022-11-29T18:45:22.084Z,97.72
2022-11-29T18:47:48.400Z,98.18
2022-11-29T18:50:14.799Z,97.89
2022-11-29T18:52:41.100Z,97.77
2022-11-29T18:55:07.882Z,97.72
2022-11-29T18:57:36.129Z,97.48
2022-11-29T19:00:03.331Z,97.42
2022-11-29T19:02:29.681Z,97.13
2022-11-29T19:04:56.008Z,97.57
2022-11-29T19:07:22.356Z,97.58
2022-11-29T19:09:48.749Z,97.65
2022-11-29T19:12:15.127Z,97.56
2022-11-29T19:14:46.505Z,97.12
2022-11-29T19:17:16.362Z,97.32
2022-11-29T19:19:42.931Z,97.44
2022-11-29T19:22:09.497Z,97.57
2022-11-29T19:24:35.872Z,97.42
2022-11-29T19:27:02.164Z,97.34
2022-11-29T19:29:28.893Z,97.01
2022-11-29T19:31:55.290Z,96.94
2022-11-29T19:34:21.712Z,96.37
2022-11-29T19:36:48.440Z,96.35
2022-11-29T19:39:17.502Z,97.75
2022-11-29T19:41:46.605Z,96.74
2022-11-29T19:44:13.169Z,96.31
2022-11-29T19:46:42.693Z,96.20
2022-11-29T19:49:09.905Z,96.62
2022-11-29T19:51:36.495Z,96.56
2022-11-29T19:54:05.808Z,96.76
2022-11-29T19:56:32.650Z,96.73
2022-11-29T19:58:59.510Z,96.47
2022-11-29T20:01:28.253Z,96.79
2022-11-29T20:03:56.328Z,96.83
2022-11-29T20:06:22.786Z,96.88
2022-11-29T20:08:49.396Z,97.51
2022-11-29T20:11:21.139Z,96.66
2022-11-29T20:13:53.228Z,96.96
2022-11-29T20:16:19.614Z,96.46
2022-11-29T20:18:50.931Z,96.38
2022-11-29T20:21:24.941Z,96.24
2022-11-29T20:23:59.049Z,96.53
2022-11-29T20:26:26.581Z,95.52
2022-11-29T20:28:52.873Z,96.24
2022-11-29T20:31:20.878Z,95.90
2022-11-29T20:33:47.487Z,96.15
2022-11-29T20:36:16.580Z,96.40
2022-11-29T20:38:54.523Z,96.12
2022-11-29T20:41:27.286Z,95.85
2022-11-29T20:43:59.705Z,95.94
2022-11-29T20:46:27.673Z,95.43
2022-11-29T20:48:55.139Z,95.98
2022-11-29T20:51:36.935Z,96.69
2022-11-29T20:54:03.512Z,95.56
2022-11-29T20:56:29.834Z,96.73
2022-11-29T20:58:56.499Z,96.16
2022-11-29T21:01:22.983Z,96.79
2022-11-29T21:03:49.543Z,96.22
2022-11-29T21:06:15.883Z,96.06
2022-11-29T21:08:42.482Z,96.41
2022-11-29T21:11:09.641Z,96.70
2022-11-29T21:13:36.629Z,96.04
2022-11-29T21:16:03.693Z,95.23
2022-11-29T21:18:30.683Z,96.26
2022-11-29T21:21:26.234Z,96.54
2022-11-29T21:24:00.618Z,96.38
2022-11-29T21:26:44.598Z,96.21
2022-11-29T21:29:14.183Z,95.77
2022-11-29T21:31:40.741Z,96.20
2022-11-29T21:34:07.127Z,96.04
2022-11-29T21:36:33.724Z,96.13
2022-11-29T21:39:04.875Z,96.16
2022-11-29T21:41:32.020Z,96.76
2022-11-29T21:44:06.436Z,97.01
2022-11-29T21:46:33.620Z,96.26
2022-11-29T21:48:59.972Z,96.44
2022-11-29T21:51:26.307Z,96.91
2022-11-29T21:53:52.631Z,97.43
2022-11-29T21:56:18.942Z,96.65
2022-11-29T21:58:45.412Z,96.76
2022-11-29T22:01:14.295Z,97.27
2022-11-29T22:03:41.630Z,97.25
2022-11-29T22:06:10.170Z,96.80
2022-11-29T22:08:38.218Z,96.23
2022-11-29T22:11:07.333Z,96.35
2022-11-29T22:13:33.764Z,97.05
2022-11-29T22:16:10.357Z,96.82
2022-11-29T22:18:36.913Z,96.39
2022-11-29T22:21:05.156Z,96.74
2022-11-29T22:23:31.805Z,97.58
2022-11-29T22:26:05.754Z,97.92
2022-11-29T22:28:32.852Z,96.69
2022-11-29T22:31:07.066Z,97.39
2022-11-29T22:33:34.284Z,96.93
2022-11-29T22:36:08.897Z,97.61
2022-11-29T22:38:35.499Z,97.95
2022-11-29T22:41:03.946Z,97.27
2022-11-29T22:43:31.530Z,97.72
2022-11-29T22:46:08.212Z,97.85
2022-11-29T22:48:38.737Z,97.20
2022-11-29T22:51:14.510Z,97.36
2022-11-29T22:53:43.483Z,97.82
2022-11-29T22:56:11.373Z,96.72
2022-11-29T22:58:37.824Z,97.43
2022-11-29T23:01:13.170Z,97.10
2022-11-29T23:03:42.094Z,96.73
2022-11-29T23:06:14.123Z,96.33
2022-11-29T23:08:42.185Z,96.44
2022-11-29T23:11:11.643Z,96.41
2022-11-29T23:13:40.180Z,95.95
2022-11-29T23:16:09.546Z,97.05
2022-11-29T23:18:36.338Z,96.32
2022-11-29T23:21:05.449Z,96.31
2022-11-29T23:23:32.479Z,95.93
2022-11-29T23:25:59.528Z,95.76
2022-11-29T23:28:26.756Z,96.17
2022-11-29T23:30:53.296Z,95.91
2022-11-29T23:33:21.071Z,96.85
2022-11-29T23:35:48.039Z,96.39
2022-11-29T23:38:14.674Z,96.23
2022-11-29T23:40:41.034Z,96.18
2022-11-29T23:43:07.438Z,96.14
2022-11-29T23:45:36.146Z,95.78
2022-11-29T23:48:02.695Z,95.62
2022-11-29T23:50:29.024Z,96.67
2022-11-29T23:52:55.760Z,96.67
2022-11-29T23:55:24.677Z,97.18
2022-11-29T23:57:51.711Z,97.24
